createdAt,value
2022-09-16T00:01:15.275Z,17.00
2022-09-16T00:03:45.166Z,16.90
2022-09-16T00:06:19.690Z,16.80
2022-09-16T00:08:48.279Z,16.80
2022-09-16T00:11:17.135Z,16.90
2022-09-16T00:13:47.015Z,16.80
2022-09-16T00:16:20.576Z,16.80
2022-09-16T00:18:49.371Z,16.80
2022-09-16T00:21:17.497Z,16.80
2022-09-16T00:23:45.658Z,16.80
2022-09-16T00:26:13.937Z,16.80
2022-09-16T00:28:42.202Z,16.80
2022-09-16T00:31:11.887Z,16.80
2022-09-16T00:33:40.080Z,16.80
2022-09-16T00:36:11.128Z,16.70
2022-09-16T00:38:40.124Z,16.70
2022-09-16T00:41:09.253Z,16.70
2022-09-16T00:43:56.679Z,16.70
2022-09-16T00:46:35.415Z,16.70
2022-09-16T00:49:06.921Z,16.70
2022-09-16T00:51:35.615Z,16.70
2022-09-16T00:54:05.641Z,16.70
2022-09-16T00:56:38.057Z,16.70
2022-09-16T00:59:08.750Z,16.70
2022-09-16T01:01:39.322Z,16.70
2022-09-16T01:04:14.498Z,16.70
2022-09-16T01:06:42.688Z,16.70
2022-09-16T01:09:10.952Z,16.70
2022-09-16T01:11:39.125Z,16.90
2022-09-16T01:14:25.482Z,16.60
2022-09-16T01:17:02.838Z,16.60
2022-09-16T01:20:01.914Z,16.60
2022-09-16T01:22:47.043Z,16.60
2022-09-16T01:25:28.964Z,16.60
2022-09-16T01:28:23.876Z,16.60
2022-09-16T01:31:02.510Z,16.60
2022-09-16T01:33:40.867Z,16.60
2022-09-16T01:36:31.408Z,16.60
2022-09-16T01:39:09.649Z,16.60
2022-09-16T01:41:49.579Z,16.90
2022-09-16T01:44:25.761Z,16.60
2022-09-16T01:47:03.506Z,16.60
2022-09-16T01:49:43.520Z,16.60
2022-09-16T01:52:21.374Z,16.60
2022-09-16T01:54:53.666Z,16.60
2022-09-16T01:57:28.431Z,16.60
2022-09-16T02:00:02.043Z,16.60
2022-09-16T02:02:39.886Z,16.50
2022-09-16T02:05:13.075Z,16.50
2022-09-16T02:07:46.485Z,16.60
2022-09-16T02:10:19.555Z,16.60
2022-09-16T02:12:50.622Z,16.50
2022-09-16T02:15:23.511Z,16.50
2022-09-16T02:17:59.099Z,16.50
2022-09-16T02:20:30.499Z,16.50
2022-09-16T02:23:03.949Z,16.50
2022-09-16T02:25:36.440Z,16.50
2022-09-16T02:28:12.614Z,16.50
2022-09-16T02:30:46.778Z,16.50
2022-09-16T02:33:17.828Z,16.50
2022-09-16T02:35:49.093Z,16.50
2022-09-16T02:38:22.301Z,16.50
2022-09-16T02:40:53.743Z,16.50
2022-09-16T02:43:21.851Z,16.50
2022-09-16T02:46:00.490Z,16.50
2022-09-16T02:48:39.074Z,16.50
2022-09-16T02:51:17.140Z,16.50
2022-09-16T02:53:48.884Z,16.50
2022-09-16T02:56:25.047Z,16.50
2022-09-16T02:58:53.182Z,16.50
2022-09-16T03:01:23.173Z,16.50
2022-09-16T03:03:57.564Z,16.50
2022-09-16T03:06:27.043Z,16.50
2022-09-16T03:08:59.363Z,16.50
2022-09-16T03:11:53.614Z,16.50
2022-09-16T03:14:38.954Z,16.50
2022-09-16T03:17:21.560Z,16.50
2022-09-16T03:20:04.741Z,16.50
2022-09-16T03:22:45.660Z,16.20
2022-09-16T03:25:24.545Z,16.50
2022-09-16T03:27:58.558Z,16.50
2022-09-16T03:30:27.144Z,16.50
2022-09-16T03:32:59.941Z,16.40
2022-09-16T03:35:35.028Z,16.40
2022-09-16T03:38:04.559Z,16.40
2022-09-16T03:40:35.260Z,16.40
2022-09-16T03:43:12.848Z,16.40
2022-09-16T03:45:42.781Z,16.40
2022-09-16T03:48:12.341Z,16.40
2022-09-16T03:50:42.172Z,16.40
2022-09-16T03:53:10.804Z,16.30
2022-09-16T03:55:42.081Z,16.30
2022-09-16T03:58:10.693Z,16.60
2022-09-16T04:00:40.091Z,16.30
2022-09-16T04:03:10.347Z,16.40
2022-09-16T04:05:39.648Z,16.30
2022-09-16T04:08:09.906Z,16.30
2022-09-16T04:10:41.338Z,16.40
2022-09-16T04:13:15.232Z,16.30
2022-09-16T04:15:46.464Z,16.30
2022-09-16T04:18:14.932Z,16.20
2022-09-16T04:20:43.500Z,16.30
2022-09-16T04:23:16.874Z,16.20
2022-09-16T04:25:45.359Z,16.20
2022-09-16T04:28:13.825Z,16.10
2022-09-16T04:30:42.142Z,16.20
2022-09-16T04:33:10.550Z,16.10
2022-09-16T04:35:38.770Z,15.80
2022-09-16T04:38:07.189Z,16.10
2022-09-16T04:40:38.980Z,16.10
2022-09-16T04:43:07.376Z,16.10
2022-09-16T04:45:37.311Z,16.10
2022-09-16T04:48:10.683Z,16.10
2022-09-16T04:50:39.113Z,16.10
2022-09-16T04:53:10.720Z,16.10
2022-09-16T04:55:41.683Z,16.10
2022-09-16T04:58:10.244Z,16.10
2022-09-16T05:00:38.838Z,15.70
2022-09-16T05:03:08.200Z,16.10
2022-09-16T05:05:36.722Z,16.10
2022-09-16T05:08:05.210Z,16.10
2022-09-16T05:10:34.099Z,16.10
2022-09-16T05:13:04.015Z,16.10
2022-09-16T05:15:32.442Z,16.10
2022-09-16T05:18:03.033Z,15.70
2022-09-16T05:20:31.451Z,16.10
2022-09-16T05:23:00.137Z,16.10
2022-09-16T05:25:28.846Z,16.10
2022-09-16T05:27:57.366Z,16.00
2022-09-16T05:30:27.232Z,16.00
2022-09-16T05:32:55.987Z,16.00
2022-09-16T05:35:24.519Z,16.00
2022-09-16T05:37:53.012Z,16.00
2022-09-16T05:40:24.412Z,16.00
2022-09-16T05:42:53.205Z,16.00
2022-09-16T05:45:26.632Z,15.90
2022-09-16T05:47:59.995Z,16.00
2022-09-16T05:50:29.182Z,15.90
2022-09-16T05:52:58.289Z,15.90
2022-09-16T05:55:27.841Z,15.90
2022-09-16T05:57:56.685Z,15.90
2022-09-16T06:00:25.528Z,15.90
2022-09-16T06:02:54.851Z,15.90
2022-09-16T06:05:25.232Z,15.90
2022-09-16T06:07:58.251Z,15.80
2022-09-16T06:10:27.570Z,15.80
2022-09-16T06:12:56.936Z,15.80
2022-09-16T06:15:25.789Z,15.80
2022-09-16T06:17:54.837Z,15.80
2022-09-16T06:20:25.766Z,15.80
2022-09-16T06:22:54.650Z,15.80
2022-09-16T06:25:23.216Z,15.80
2022-09-16T06:27:52.644Z,15.80
2022-09-16T06:30:21.390Z,15.80
2022-09-16T06:32:50.279Z,15.80
2022-09-16T06:35:19.463Z,15.90
2022-09-16T06:37:49.674Z,15.80
2022-09-16T06:40:19.021Z,15.90
2022-09-16T06:42:48.261Z,15.70
2022-09-16T06:45:20.579Z,15.90
2022-09-16T06:47:50.028Z,15.80
2022-09-16T06:50:22.252Z,15.80
2022-09-16T06:52:53.843Z,15.80
2022-09-16T06:55:22.601Z,15.90
2022-09-16T06:57:51.079Z,15.90
2022-09-16T07:00:20.337Z,15.90
2022-09-16T07:02:48.857Z,15.90
2022-09-16T07:05:17.454Z,15.90
2022-09-16T07:07:45.813Z,15.90
2022-09-16T07:10:15.785Z,15.90
2022-09-16T07:12:44.378Z,15.90
2022-09-16T07:15:12.940Z,15.90
2022-09-16T07:17:41.473Z,15.90
2022-09-16T07:20:10.711Z,15.90
2022-09-16T07:22:39.058Z,15.90
2022-09-16T07:25:08.079Z,15.80
2022-09-16T07:27:37.872Z,15.80
2022-09-16T07:30:09.071Z,15.70
2022-09-16T07:32:38.545Z,15.80
2022-09-16T07:35:07.538Z,15.80
2022-09-16T07:37:41.948Z,15.70
2022-09-16T07:40:13.565Z,15.80
2022-09-16T07:42:43.599Z,15.80
2022-09-16T07:45:12.424Z,15.70
2022-09-16T07:47:40.853Z,15.70
2022-09-16T07:50:10.291Z,15.70
2022-09-16T07:52:38.692Z,15.70
2022-09-16T07:55:07.626Z,15.70
2022-09-16T07:57:36.125Z,15.70
2022-09-16T08:00:07.068Z,15.70
2022-09-16T08:02:40.366Z,15.70
2022-09-16T08:05:10.032Z,15.70
2022-09-16T08:07:38.598Z,15.70
2022-09-16T08:10:07.733Z,15.70
2022-09-16T08:12:36.153Z,15.70
2022-09-16T08:15:06.932Z,15.60
2022-09-16T08:17:36.234Z,15.60
2022-09-16T08:20:07.194Z,15.60
2022-09-16T08:22:36.217Z,15.60
2022-09-16T08:25:04.995Z,15.70
2022-09-16T08:27:36.125Z,15.70
2022-09-16T08:30:07.330Z,15.70
2022-09-16T08:32:35.947Z,15.70
2022-09-16T08:35:04.912Z,15.80
2022-09-16T08:37:33.338Z,15.80
2022-09-16T08:40:01.987Z,15.80
2022-09-16T08:42:37.460Z,15.80
2022-09-16T08:45:24.656Z,15.80
2022-09-16T08:48:08.104Z,15.90
2022-09-16T08:50:40.913Z,15.80
2022-09-16T08:53:14.732Z,15.80
2022-09-16T08:55:48.395Z,15.80
2022-09-16T08:58:19.534Z,15.90
2022-09-16T09:00:57.608Z,15.90
2022-09-16T09:03:37.630Z,15.90
2022-09-16T09:06:14.614Z,15.90
2022-09-16T09:08:54.068Z,16.00
2022-09-16T09:11:28.923Z,16.00
2022-09-16T09:14:10.634Z,16.00
2022-09-16T09:16:46.822Z,16.00
2022-09-16T09:19:27.475Z,16.00
2022-09-16T09:22:04.141Z,16.00
2022-09-16T09:24:51.471Z,16.10
2022-09-16T09:27:28.108Z,16.10
2022-09-16T09:30:11.661Z,16.10
2022-09-16T09:32:56.591Z,16.20
2022-09-16T09:35:34.325Z,16.20
2022-09-16T09:38:33.273Z,16.20
2022-09-16T09:41:08.856Z,16.20
2022-09-16T09:43:42.958Z,16.30
2022-09-16T09:46:17.646Z,16.30
2022-09-16T09:48:52.757Z,16.30
2022-09-16T09:51:27.686Z,16.40
2022-09-16T09:54:01.178Z,16.20
2022-09-16T09:56:33.290Z,16.10
2022-09-16T09:59:11.933Z,16.10
2022-09-16T10:01:40.334Z,16.10
2022-09-16T10:04:15.469Z,16.10
2022-09-16T10:06:45.966Z,16.10
2022-09-16T10:09:16.670Z,16.10
2022-09-16T10:11:50.083Z,16.10
2022-09-16T10:14:25.900Z,16.10
2022-09-16T10:16:54.977Z,16.10
2022-09-16T10:19:26.651Z,16.10
2022-09-16T10:21:56.371Z,16.00
2022-09-16T10:24:31.904Z,16.00
2022-09-16T10:27:01.909Z,16.10
2022-09-16T10:29:30.681Z,16.10
2022-09-16T10:32:06.435Z,16.10
2022-09-16T10:34:40.031Z,16.20
2022-09-16T10:37:18.114Z,16.20
2022-09-16T10:39:51.221Z,16.20
2022-09-16T10:42:21.722Z,16.20
2022-09-16T10:44:51.450Z,16.20
2022-09-16T10:47:23.002Z,16.20
2022-09-16T10:49:55.833Z,16.20
2022-09-16T10:52:26.410Z,16.10
2022-09-16T10:54:55.332Z,16.00
2022-09-16T10:57:28.850Z,16.00
2022-09-16T11:00:09.364Z,16.00
2022-09-16T11:02:53.670Z,16.00
2022-09-16T11:05:31.871Z,16.00
2022-09-16T11:08:09.981Z,16.00
2022-09-16T11:10:45.184Z,16.10
2022-09-16T11:13:34.397Z,16.00
2022-09-16T11:16:21.154Z,16.10
2022-09-16T11:18:58.778Z,16.10
2022-09-16T11:22:05.880Z,16.10
2022-09-16T11:24:55.042Z,16.10
2022-09-16T11:27:34.784Z,16.10
2022-09-16T11:30:10.784Z,16.10
2022-09-16T11:33:03.250Z,16.10
2022-09-16T11:35:41.842Z,15.60
2022-09-16T11:38:23.291Z,15.30
2022-09-16T11:40:59.909Z,15.10
2022-09-16T11:43:51.636Z,14.90
2022-09-16T11:46:26.075Z,14.90
2022-09-16T11:49:11.445Z,14.80
2022-09-16T11:51:54.862Z,14.80
2022-09-16T11:54:40.435Z,14.80
2022-09-16T11:57:15.143Z,14.90
2022-09-16T11:59:51.255Z,14.90
2022-09-16T12:02:26.354Z,15.20
2022-09-16T12:04:59.720Z,14.90
2022-09-16T12:07:33.982Z,15.00
2022-09-16T12:10:12.635Z,15.10
2022-09-16T12:12:46.087Z,15.10
2022-09-16T12:15:19.856Z,15.10
2022-09-16T12:17:53.481Z,15.20
2022-09-16T12:20:25.833Z,15.20
2022-09-16T12:23:00.197Z,15.20
2022-09-16T12:25:38.069Z,15.20
2022-09-16T12:28:16.970Z,15.30
2022-09-16T12:30:48.364Z,15.30
2022-09-16T12:33:22.415Z,15.30
2022-09-16T12:35:57.495Z,15.30
2022-09-16T12:38:26.109Z,15.30
2022-09-16T12:41:19.944Z,15.40
2022-09-16T12:44:33.907Z,15.40
2022-09-16T12:47:18.964Z,15.40
2022-09-16T12:50:10.522Z,15.80
2022-09-16T12:53:03.702Z,15.50
2022-09-16T12:55:54.273Z,15.60
2022-09-16T12:58:57.356Z,15.60
2022-09-16T13:01:28.229Z,15.70
2022-09-16T13:03:59.672Z,15.70
2022-09-16T13:06:30.390Z,15.70
2022-09-16T13:09:13.999Z,15.80
2022-09-16T13:14:35.065Z,15.80
2022-09-16T13:17:03.481Z,15.80
2022-09-16T13:19:38.902Z,15.80
2022-09-16T13:22:21.957Z,15.80
2022-09-16T13:24:54.713Z,15.70
2022-09-16T13:27:35.514Z,15.70
2022-09-16T13:30:16.056Z,16.00
2022-09-16T13:32:47.090Z,15.80
2022-09-16T13:35:37.947Z,15.70
2022-09-16T13:38:36.240Z,15.80
2022-09-16T13:41:04.673Z,15.80
2022-09-16T13:43:36.327Z,15.80
2022-09-16T13:46:16.066Z,15.80
2022-09-16T13:48:50.322Z,15.80
2022-09-16T13:51:22.558Z,15.80
2022-09-16T13:53:53.337Z,15.80
2022-09-16T13:56:42.481Z,15.70
2022-09-16T13:59:30.579Z,15.60
2022-09-16T14:02:14.468Z,15.60
2022-09-16T14:05:11.457Z,15.60
2022-09-16T14:07:46.827Z,15.60
2022-09-16T14:10:20.994Z,15.60
2022-09-16T14:13:00.641Z,15.60
2022-09-16T14:15:31.141Z,15.90
2022-09-16T14:18:03.584Z,15.50
2022-09-16T14:20:33.501Z,15.60
2022-09-16T14:23:03.521Z,15.60
2022-09-16T14:25:34.999Z,15.60
2022-09-16T14:28:19.319Z,15.60
2022-09-16T14:30:50.188Z,15.70
2022-09-16T14:33:23.861Z,15.80
2022-09-16T14:35:55.009Z,15.70
2022-09-16T14:38:44.801Z,15.80
2022-09-16T14:41:23.106Z,15.80
2022-09-16T14:43:52.802Z,15.90
2022-09-16T14:46:21.415Z,15.90
2022-09-16T14:48:51.371Z,15.90
2022-09-16T14:51:24.780Z,15.90
2022-09-16T14:54:12.336Z,16.00
2022-09-16T14:56:41.594Z,15.90
2022-09-16T14:59:13.613Z,15.90
2022-09-16T15:01:42.661Z,15.90
2022-09-16T15:04:19.568Z,16.00
2022-09-16T15:06:55.620Z,16.00
2022-09-16T15:09:29.467Z,16.00
2022-09-16T15:12:00.982Z,16.00
2022-09-16T15:14:29.925Z,16.00
2022-09-16T15:17:02.543Z,16.00
2022-09-16T15:19:36.383Z,16.00
2022-09-16T15:22:09.162Z,16.10
2022-09-16T15:24:42.008Z,16.10
2022-09-16T15:27:11.346Z,16.10
2022-09-16T15:29:51.605Z,16.10
2022-09-16T15:32:23.354Z,16.10
2022-09-16T15:35:17.602Z,16.10
2022-09-16T15:37:46.051Z,16.10
2022-09-16T15:40:24.377Z,16.10
2022-09-16T15:43:12.977Z,16.10
2022-09-16T15:45:41.771Z,16.10
2022-09-16T15:48:17.573Z,16.20
2022-09-16T15:50:50.412Z,16.20
2022-09-16T15:53:22.564Z,16.20
2022-09-16T15:56:01.954Z,16.20
2022-09-16T15:58:40.940Z,16.30
2022-09-16T16:01:14.983Z,16.30
2022-09-16T16:03:54.766Z,16.40
2022-09-16T16:06:45.883Z,16.40
2022-09-16T16:09:36.799Z,16.40
2022-09-16T16:12:08.669Z,16.40
2022-09-16T16:14:38.483Z,16.50
2022-09-16T16:17:13.280Z,16.50
2022-09-16T16:19:43.444Z,16.50
2022-09-16T16:22:13.628Z,16.50
2022-09-16T16:24:42.036Z,16.60
2022-09-16T16:27:10.769Z,16.60
2022-09-16T16:29:39.432Z,16.80
2022-09-16T16:32:09.620Z,16.60
2022-09-16T16:34:39.077Z,16.70
2022-09-16T16:37:08.436Z,16.70
2022-09-16T16:39:38.485Z,16.80
2022-09-16T16:42:06.972Z,16.80
2022-09-16T16:44:36.434Z,16.80
2022-09-16T16:47:05.368Z,16.80
2022-09-16T16:49:34.077Z,16.90
2022-09-16T16:52:03.573Z,17.00
2022-09-16T16:54:32.057Z,16.80
2022-09-16T16:57:03.517Z,16.80
2022-09-16T16:59:32.192Z,16.80
2022-09-16T17:02:00.467Z,16.80
2022-09-16T17:04:28.959Z,16.70
2022-09-16T17:07:21.483Z,16.60
2022-09-16T17:09:45.984Z,16.60
2022-09-16T17:12:15.686Z,16.50
2022-09-16T17:14:43.882Z,16.50
2022-09-16T17:17:12.163Z,16.40
2022-09-16T17:19:40.285Z,16.40
2022-09-16T17:22:08.511Z,16.40
2022-09-16T17:24:36.936Z,16.30
2022-09-16T17:27:05.769Z,16.30
2022-09-16T17:29:35.388Z,16.30
2022-09-16T17:32:04.435Z,16.30
2022-09-16T17:34:32.702Z,16.20
2022-09-16T17:37:00.946Z,16.20
2022-09-16T17:39:29.858Z,16.20
2022-09-16T17:41:59.910Z,16.20
2022-09-16T17:44:28.209Z,16.20
2022-09-16T17:46:57.785Z,16.20
2022-09-16T17:49:27.171Z,16.20
2022-09-16T17:51:55.590Z,16.10
2022-09-16T17:54:23.872Z,16.10
2022-09-16T17:56:52.200Z,16.10
2022-09-16T17:59:20.825Z,16.10
2022-09-16T18:01:49.164Z,16.00
2022-09-16T18:04:18.754Z,16.00
2022-09-16T18:06:47.825Z,16.40
2022-09-16T18:09:17.231Z,16.00
2022-09-16T18:11:46.303Z,15.90
2022-09-16T18:14:17.236Z,15.90
2022-09-16T18:16:48.482Z,15.90
2022-09-16T18:19:18.267Z,15.80
2022-09-16T18:21:46.488Z,15.80
2022-09-16T18:24:14.602Z,15.80
2022-09-16T18:26:43.135Z,15.80
2022-09-16T18:29:12.927Z,15.80
2022-09-16T18:31:42.677Z,15.80
2022-09-16T18:34:11.213Z,15.80
2022-09-16T18:36:43.923Z,15.80
2022-09-16T18:39:14.177Z,15.80
2022-09-16T18:41:44.283Z,15.80
2022-09-16T18:44:15.498Z,15.80
2022-09-16T18:46:43.821Z,15.80
2022-09-16T18:49:14.548Z,15.80
2022-09-16T18:51:50.509Z,15.70
2022-09-16T18:54:24.589Z,15.70
2022-09-16T18:56:55.638Z,15.70
2022-09-16T18:59:26.902Z,15.70
2022-09-16T19:01:57.395Z,15.70
2022-09-16T19:04:28.022Z,15.70
2022-09-16T19:06:59.361Z,15.70
2022-09-16T19:09:27.666Z,15.60
2022-09-16T19:11:56.205Z,15.60
2022-09-16T19:14:27.364Z,15.50
2022-09-16T19:16:55.820Z,15.50
2022-09-16T19:19:23.992Z,15.50
2022-09-16T19:21:52.157Z,15.50
2022-09-16T19:24:23.399Z,15.40
2022-09-16T19:26:53.720Z,15.40
2022-09-16T19:29:22.072Z,15.40
2022-09-16T19:31:55.518Z,15.30
2022-09-16T19:34:24.009Z,15.30
2022-09-16T19:36:54.643Z,15.30
2022-09-16T19:39:27.229Z,15.30
2022-09-16T19:42:03.520Z,15.30
2022-09-16T19:44:34.320Z,15.30
2022-09-16T19:47:06.732Z,15.20
2022-09-16T19:49:43.410Z,15.20
2022-09-16T19:52:14.994Z,15.40
2022-09-16T19:54:54.646Z,15.20
2022-09-16T19:57:25.316Z,15.10
2022-09-16T19:59:55.736Z,15.40
2022-09-16T20:02:30.378Z,15.10
2022-09-16T20:04:58.598Z,15.10
2022-09-16T20:07:36.302Z,15.10
2022-09-16T20:10:28.234Z,15.10
2022-09-16T20:12:59.596Z,15.10
2022-09-16T20:15:31.429Z,15.00
2022-09-16T20:18:04.569Z,15.00
2022-09-16T20:23:21.339Z,15.00
2022-09-16T20:25:57.626Z,15.00
2022-09-16T20:28:26.276Z,14.90
2022-09-16T20:30:54.484Z,14.90
2022-09-16T20:33:22.650Z,14.90
2022-09-16T20:35:50.834Z,14.90
2022-09-16T20:38:19.099Z,14.80
2022-09-16T20:40:48.137Z,14.80
2022-09-16T20:43:17.794Z,14.80
2022-09-16T20:45:46.067Z,14.80
2022-09-16T20:48:14.251Z,14.80
2022-09-16T20:50:44.156Z,14.80
2022-09-16T20:53:12.703Z,14.70
2022-09-16T20:55:40.891Z,14.70
2022-09-16T20:58:09.163Z,14.70
2022-09-16T21:00:39.201Z,14.70
2022-09-16T21:03:07.611Z,14.60
2022-09-16T21:05:35.898Z,14.60
2022-09-16T21:08:04.801Z,14.60
2022-09-16T21:10:33.135Z,14.60
2022-09-16T21:13:01.358Z,14.60
2022-09-16T21:15:29.523Z,14.60
2022-09-16T21:17:59.193Z,14.60
2022-09-16T21:20:27.407Z,14.60
2022-09-16T21:22:55.586Z,14.60
2022-09-16T21:25:24.721Z,14.50
2022-09-16T21:27:52.867Z,14.50
2022-09-16T21:30:21.058Z,14.50
2022-09-16T21:32:49.448Z,14.50
2022-09-16T21:35:19.089Z,14.50
2022-09-16T21:37:48.301Z,14.50
2022-09-16T21:40:16.622Z,14.50
2022-09-16T21:42:49.293Z,14.50
2022-09-16T21:45:17.535Z,14.70
2022-09-16T21:47:48.879Z,14.40
2022-09-16T21:50:18.542Z,14.40
2022-09-16T21:52:47.003Z,14.40
2022-09-16T21:55:15.197Z,14.30
2022-09-16T21:57:43.380Z,14.30
2022-09-16T22:00:13.180Z,14.30
2022-09-16T22:02:41.464Z,14.30
2022-09-16T22:05:10.524Z,14.40
2022-09-16T22:07:40.178Z,14.40
2022-09-16T22:10:09.447Z,14.40
2022-09-16T22:12:38.137Z,14.40
2022-09-16T22:15:07.559Z,14.30
2022-09-16T22:17:35.770Z,14.30
2022-09-16T22:20:04.682Z,14.30
2022-09-16T22:22:32.802Z,14.30
2022-09-16T22:25:02.320Z,14.30
2022-09-16T22:27:31.011Z,14.30
2022-09-16T22:29:59.122Z,14.30
2022-09-16T22:32:28.397Z,14.30
2022-09-16T22:34:56.533Z,14.30
2022-09-16T22:37:24.746Z,14.30
2022-09-16T22:39:52.885Z,14.30
2022-09-16T22:42:22.456Z,14.60
2022-09-16T22:44:50.610Z,14.30
2022-09-16T22:47:18.837Z,14.30
2022-09-16T22:49:47.187Z,14.40
2022-09-16T22:52:15.351Z,14.40
2022-09-16T22:54:43.501Z,14.40
2022-09-16T22:57:11.634Z,14.50
2022-09-16T22:59:41.196Z,14.40
2022-09-16T23:02:09.807Z,14.40
2022-09-16T23:04:37.986Z,14.40
2022-09-16T23:07:06.559Z,14.40
2022-09-16T23:09:34.808Z,14.40
2022-09-16T23:12:03.494Z,14.40
2022-09-16T23:14:32.373Z,14.40
2022-09-16T23:17:02.007Z,14.30
2022-09-16T23:19:30.379Z,14.30
2022-09-16T23:21:58.597Z,14.30
2022-09-16T23:24:26.827Z,14.30
2022-09-16T23:26:55.060Z,14.30
2022-09-16T23:29:23.462Z,14.00
2022-09-16T23:31:51.635Z,14.30
2022-09-16T23:34:22.656Z,14.30
2022-09-16T23:36:51.456Z,14.30
2022-09-16T23:39:20.464Z,14.30
2022-09-16T23:41:51.233Z,14.30
2022-09-16T23:44:20.228Z,14.30
2022-09-16T23:46:48.399Z,14.30
2022-09-16T23:49:20.231Z,14.30
2022-09-16T23:51:50.485Z,14.30
2022-09-16T23:54:18.621Z,14.20
2022-09-16T23:56:47.093Z,14.20
2022-09-16T23:59:15.402Z,14.20
